CFF2 weather

Christina Basin Airport
Christina Basin, Alberta, Canada

Public forecast

Using degrees Celsius for public forecast. Weather courtesy of forecast.io.

Closest aviation weather report (METAR) to Christina Basin Airport

Closest report is Fort McMurray Airport, 66.9 nm (124.0 km) NNE. Retrieved 2020/02/18 18:00 UTC (30 minutes ago):

CYMM 181800Z AUTO 06003KT 9SM CLR M25/M28 A3049 RMK SLP377

Closest aviation forecast (TAF) to Christina Basin Airport

Closest forecast is Fort McMurray Airport, 66.9 nm (124.0 km) NNE. Retrieved 2020/02/18 19:39 UTC (0 seconds ago):

TAF CYMM 181838Z 1819/1907 06003KT P6SM SKC BECMG 1820/1822 12005KT FM190500 14005KT P6SM FEW150 SCT260 RMK FCST BASED ON AUTO OBS NXT FCST BY 190100Z